sensor_id;sensor_type;location;lat;lon;timestamp;pressure;altitude;pressure_sealevel;temperature
80422;BMP280;69763;50.182;9.144;2023-07-28T00:00:13;99205.75;;;15.41
80422;BMP280;69763;50.182;9.144;2023-07-28T00:02:38;99214.63;;;15.41
80422;BMP280;69763;50.182;9.144;2023-07-28T00:05:04;99209.88;;;15.42
80422;BMP280;69763;50.182;9.144;2023-07-28T00:07:30;99200.97;;;15.41
80422;BMP280;69763;50.182;9.144;2023-07-28T00:09:57;99213.34;;;15.42
80422;BMP280;69763;50.182;9.144;2023-07-28T00:12:22;99198.97;;;15.42
80422;BMP280;69763;50.182;9.144;2023-07-28T00:14:47;99212.63;;;15.42
80422;BMP280;69763;50.182;9.144;2023-07-28T00:17:13;99207.16;;;15.42
80422;BMP280;69763;50.182;9.144;2023-07-28T00:19:38;99209.16;;;15.41
80422;BMP280;69763;50.182;9.144;2023-07-28T00:22:04;99207.16;;;15.42
80422;BMP280;69763;50.182;9.144;2023-07-28T00:24:29;99205.00;;;15.40
80422;BMP280;69763;50.182;9.144;2023-07-28T00:26:56;99196.09;;;15.40
80422;BMP280;69763;50.182;9.144;2023-07-28T00:29:21;99198.81;;;15.40
80422;BMP280;69763;50.182;9.144;2023-07-28T00:31:46;99199.56;;;15.40
80422;BMP280;69763;50.182;9.144;2023-07-28T00:34:12;99194.09;;;15.40
80422;BMP280;69763;50.182;9.144;2023-07-28T00:36:37;99193.38;;;15.40
80422;BMP280;69763;50.182;9.144;2023-07-28T00:39:03;99198.81;;;15.40
80422;BMP280;69763;50.182;9.144;2023-07-28T00:41:28;99198.09;;;15.39
80422;BMP280;69763;50.182;9.144;2023-07-28T00:43:55;99195.38;;;15.39
80422;BMP280;69763;50.182;9.144;2023-07-28T00:46:21;99190.47;;;15.38
80422;BMP280;69763;50.182;9.144;2023-07-28T00:48:46;99190.34;;;15.36
80422;BMP280;69763;50.182;9.144;2023-07-28T00:51:12;99188.31;;;15.36
80422;BMP280;69763;50.182;9.144;2023-07-28T00:53:37;99183.44;;;15.35
80422;BMP280;69763;50.182;9.144;2023-07-28T00:56:03;99182.69;;;15.34
80422;BMP280;69763;50.182;9.144;2023-07-28T00:58:29;99182.53;;;15.32
80422;BMP280;69763;50.182;9.144;2023-07-28T01:00:56;99181.13;;;15.31
80422;BMP280;69763;50.182;9.144;2023-07-28T01:03:22;99192.03;;;15.31
80422;BMP280;69763;50.182;9.144;2023-07-28T01:08:35;99190.28;;;15.26
80422;BMP280;69763;50.182;9.144;2023-07-28T01:11:03;99174.31;;;15.23
80422;BMP280;69763;50.182;9.144;2023-07-28T01:13:29;99175.75;;;15.24
80422;BMP280;69763;50.182;9.144;2023-07-28T01:15:56;99177.63;;;15.21
80422;BMP280;69763;50.182;9.144;2023-07-28T01:18:21;99181.06;;;15.22
80422;BMP280;69763;50.182;9.144;2023-07-28T01:20:47;99181.06;;;15.22
80422;BMP280;69763;50.182;9.144;2023-07-28T01:23:19;99176.31;;;15.22
80422;BMP280;69763;50.182;9.144;2023-07-28T01:25:49;99173.56;;;15.22
80422;BMP280;69763;50.182;9.144;2023-07-28T01:28:22;99187.22;;;15.22
80422;BMP280;69763;50.182;9.144;2023-07-28T01:30:47;99185.81;;;15.21
80422;BMP280;69763;50.182;9.144;2023-07-28T01:33:13;99183.06;;;15.21
80422;BMP280;69763;50.182;9.144;2023-07-28T01:35:38;99168.13;;;15.22
80422;BMP280;69763;50.182;9.144;2023-07-28T01:38:04;99172.28;;;15.23
80422;BMP280;69763;50.182;9.144;2023-07-28T01:40:29;99168.13;;;15.22
80422;BMP280;69763;50.182;9.144;2023-07-28T01:42:55;99164.69;;;15.22
80422;BMP280;69763;50.182;9.144;2023-07-28T01:45:22;99165.25;;;15.20
80422;BMP280;69763;50.182;9.144;2023-07-28T01:47:47;99165.97;;;15.21
80422;BMP280;69763;50.182;9.144;2023-07-28T01:50:12;99162.53;;;15.20
80422;BMP280;69763;50.182;9.144;2023-07-28T01:52:38;99163.81;;;15.19
80422;BMP280;69763;50.182;9.144;2023-07-28T01:55:04;99168.38;;;15.16
80422;BMP280;69763;50.182;9.144;2023-07-28T01:57:32;99157.88;;;15.13
80422;BMP280;69763;50.182;9.144;2023-07-28T01:59:58;99159.19;;;15.12
80422;BMP280;69763;50.182;9.144;2023-07-28T02:02:24;99164.63;;;15.12
80422;BMP280;69763;50.182;9.144;2023-07-28T02:04:50;99165.22;;;15.10
80422;BMP280;69763;50.182;9.144;2023-07-28T02:07:15;99164.50;;;15.10
80422;BMP280;69763;50.182;9.144;2023-07-28T02:09:41;99163.22;;;15.11
80422;BMP280;69763;50.182;9.144;2023-07-28T02:12:07;99173.41;;;15.10
80422;BMP280;69763;50.182;9.144;2023-07-28T02:14:32;99168.22;;;15.14
80422;BMP280;69763;50.182;9.144;2023-07-28T02:16:57;99168.53;;;15.18
80422;BMP280;69763;50.182;9.144;2023-07-28T02:19:24;99167.97;;;15.20
80422;BMP280;69763;50.182;9.144;2023-07-28T02:21:50;99171.56;;;15.23
80422;BMP280;69763;50.182;9.144;2023-07-28T02:24:15;99160.81;;;15.25
80422;BMP280;69763;50.182;9.144;2023-07-28T02:26:41;99162.25;;;15.26
80422;BMP280;69763;50.182;9.144;2023-07-28T02:29:06;99164.41;;;15.27
80422;BMP280;69763;50.182;9.144;2023-07-28T02:31:31;99170.75;;;15.30
80422;BMP280;69763;50.182;9.144;2023-07-28T02:33:57;99178.38;;;15.31
80422;BMP280;69763;50.182;9.144;2023-07-28T02:36:23;99177.06;;;15.32
80422;BMP280;69763;50.182;9.144;2023-07-28T02:38:49;99173.78;;;15.34
80422;BMP280;69763;50.182;9.144;2023-07-28T02:41:15;99174.50;;;15.34
80422;BMP280;69763;50.182;9.144;2023-07-28T02:43:40;99175.97;;;15.35
80422;BMP280;69763;50.182;9.144;2023-07-28T02:46:06;99178.69;;;15.35
80422;BMP280;69763;50.182;9.144;2023-07-28T02:48:31;99174.69;;;15.36
80422;BMP280;69763;50.182;9.144;2023-07-28T02:50:57;99176.09;;;15.37
80422;BMP280;69763;50.182;9.144;2023-07-28T02:53:24;99176.09;;;15.37
80422;BMP280;69763;50.182;9.144;2023-07-28T02:55:49;99180.28;;;15.38
80422;BMP280;69763;50.182;9.144;2023-07-28T02:58:15;99180.28;;;15.38
80422;BMP280;69763;50.182;9.144;2023-07-28T03:00:41;99184.44;;;15.39
80422;BMP280;69763;50.182;9.144;2023-07-28T03:03:09;99184.44;;;15.39
80422;BMP280;69763;50.182;9.144;2023-07-28T03:05:34;99185.19;;;15.40
80422;BMP280;69763;50.182;9.144;2023-07-28T03:08:00;99179.00;;;15.39
80422;BMP280;69763;50.182;9.144;2023-07-28T03:10:26;99184.44;;;15.39
80422;BMP280;69763;50.182;9.144;2023-07-28T03:12:52;99183.72;;;15.39
80422;BMP280;69763;50.182;9.144;2023-07-28T03:15:17;99181.72;;;15.39
80422;BMP280;69763;50.182;9.144;2023-07-28T03:17:43;99181.72;;;15.39
80422;BMP280;69763;50.182;9.144;2023-07-28T03:20:09;99195.38;;;15.39
80422;BMP280;69763;50.182;9.144;2023-07-28T03:22:34;99183.00;;;15.38
80422;BMP280;69763;50.182;9.144;2023-07-28T03:25:00;99176.81;;;15.38
80422;BMP280;69763;50.182;9.144;2023-07-28T03:27:26;99178.81;;;15.37
80422;BMP280;69763;50.182;9.144;2023-07-28T03:29:52;99181.56;;;15.37
80422;BMP280;69763;50.182;9.144;2023-07-28T03:32:17;99180.13;;;15.36
80422;BMP280;69763;50.182;9.144;2023-07-28T03:34:42;99181.56;;;15.37
80422;BMP280;69763;50.182;9.144;2023-07-28T03:37:08;99173.38;;;15.37
80422;BMP280;69763;50.182;9.144;2023-07-28T03:39:33;99175.38;;;15.37
80422;BMP280;69763;50.182;9.144;2023-07-28T03:41:59;99181.00;;;15.39
80422;BMP280;69763;50.182;9.144;2023-07-28T03:44:26;99181.72;;;15.39
80422;BMP280;69763;50.182;9.144;2023-07-28T03:46:51;99183.72;;;15.39
80422;BMP280;69763;50.182;9.144;2023-07-28T03:49:17;99188.47;;;15.38
80422;BMP280;69763;50.182;9.144;2023-07-28T03:51:42;99181.00;;;15.39
80422;BMP280;69763;50.182;9.144;2023-07-28T03:54:08;99182.44;;;15.40
80422;BMP280;69763;50.182;9.144;2023-07-28T03:56:33;99183.72;;;15.39
80422;BMP280;69763;50.182;9.144;2023-07-28T03:58:59;99178.09;;;15.37
80422;BMP280;69763;50.182;9.144;2023-07-28T04:01:25;99179.41;;;15.36
80422;BMP280;69763;50.182;9.144;2023-07-28T04:03:51;99167.59;;;15.33
80422;BMP280;69763;50.182;9.144;2023-07-28T04:06:16;99173.63;;;15.32
80422;BMP280;69763;50.182;9.144;2023-07-28T04:08:42;99175.50;;;15.29
80422;BMP280;69763;50.182;9.144;2023-07-28T04:11:07;99171.19;;;15.26
80422;BMP280;69763;50.182;9.144;2023-07-28T04:13:33;99178.06;;;15.27
80422;BMP280;69763;50.182;9.144;2023-07-28T04:15:58;99184.97;;;15.28
80422;BMP280;69763;50.182;9.144;2023-07-28T04:18:25;99184.41;;;15.30
80422;BMP280;69763;50.182;9.144;2023-07-28T04:20:51;99182.69;;;15.34
80422;BMP280;69763;50.182;9.144;2023-07-28T04:23:16;99195.38;;;15.39
80422;BMP280;69763;50.182;9.144;2023-07-28T04:25:41;99193.84;;;15.46
80422;BMP280;69763;50.182;9.144;2023-07-28T04:28:07;99197.16;;;15.54
80422;BMP280;69763;50.182;9.144;2023-07-28T04:30:32;99198.91;;;15.59
80422;BMP280;69763;50.182;9.144;2023-07-28T04:32:58;99207.53;;;15.65
80422;BMP280;69763;50.182;9.144;2023-07-28T04:35:24;99205.84;;;15.70
80422;BMP280;69763;50.182;9.144;2023-07-28T04:37:50;99204.84;;;15.75
80422;BMP280;69763;50.182;9.144;2023-07-28T04:40:15;99213.91;;;15.77
80422;BMP280;69763;50.182;9.144;2023-07-28T04:42:41;99213.47;;;15.81
80422;BMP280;69763;50.182;9.144;2023-07-28T04:45:07;99209.75;;;15.86
80422;BMP280;69763;50.182;9.144;2023-07-28T04:47:32;99206.03;;;15.91
80422;BMP280;69763;50.182;9.144;2023-07-28T04:49:58;99207.78;;;15.96
80422;BMP280;69763;50.182;9.144;2023-07-28T04:52:24;99219.00;;;16.00
80422;BMP280;69763;50.182;9.144;2023-07-28T04:54:50;99225.34;;;16.02
80422;BMP280;69763;50.182;9.144;2023-07-28T04:57:15;99222.34;;;16.08
80422;BMP280;69763;50.182;9.144;2023-07-28T04:59:41;99221.63;;;16.17
80422;BMP280;69763;50.182;9.144;2023-07-28T05:02:06;99220.75;;;16.24
80422;BMP280;69763;50.182;9.144;2023-07-28T05:04:31;99223.38;;;16.32
80422;BMP280;69763;50.182;9.144;2023-07-28T05:06:57;99221.22;;;16.40
80422;BMP280;69763;50.182;9.144;2023-07-28T05:09:24;99224.53;;;16.48
80422;BMP280;69763;50.182;9.144;2023-07-28T05:11:49;99230.72;;;16.48
80422;BMP280;69763;50.182;9.144;2023-07-28T05:14:14;99231.28;;;16.47
80422;BMP280;69763;50.182;9.144;2023-07-28T05:16:40;99233.31;;;16.46
80422;BMP280;69763;50.182;9.144;2023-07-28T05:19:05;99236.06;;;16.46
80422;BMP280;69763;50.182;9.144;2023-07-28T05:21:31;99229.13;;;16.45
80422;BMP280;69763;50.182;9.144;2023-07-28T05:23:56;99228.53;;;16.47
80422;BMP280;69763;50.182;9.144;2023-07-28T05:26:23;99238.91;;;16.48
80422;BMP280;69763;50.182;9.144;2023-07-28T05:28:48;99241.09;;;16.50
80422;BMP280;69763;50.182;9.144;2023-07-28T05:31:14;99240.22;;;16.57
80422;BMP280;69763;50.182;9.144;2023-07-28T05:33:39;99243.56;;;16.65
80422;BMP280;69763;50.182;9.144;2023-07-28T05:36:05;99247.13;;;16.68
80422;BMP280;69763;50.182;9.144;2023-07-28T05:38:30;99247.25;;;16.70
80422;BMP280;69763;50.182;9.144;2023-07-28T05:40:56;99239.91;;;16.72
80422;BMP280;69763;50.182;9.144;2023-07-28T05:43:23;99244.94;;;16.76
80422;BMP280;69763;50.182;9.144;2023-07-28T05:45:48;99240.91;;;16.77
80422;BMP280;69763;50.182;9.144;2023-07-28T05:48:14;99241.66;;;16.77
80422;BMP280;69763;50.182;9.144;2023-07-28T05:50:39;99242.38;;;16.78
80422;BMP280;69763;50.182;9.144;2023-07-28T05:53:04;99252.59;;;16.77
80422;BMP280;69763;50.182;9.144;2023-07-28T05:55:30;99251.88;;;16.77
80422;BMP280;69763;50.182;9.144;2023-07-28T05:57:55;99261.38;;;16.76
80422;BMP280;69763;50.182;9.144;2023-07-28T06:00:22;99250.56;;;16.78
80422;BMP280;69763;50.182;9.144;2023-07-28T06:02:47;99259.63;;;16.80
80422;BMP280;69763;50.182;9.144;2023-07-28T06:05:13;99251.13;;;16.86
80422;BMP280;69763;50.182;9.144;2023-07-28T06:07:38;99254.16;;;16.90
80422;BMP280;69763;50.182;9.144;2023-07-28T06:10:05;99260.78;;;16.96
80422;BMP280;69763;50.182;9.144;2023-07-28T06:12:30;99259.06;;;17.11
80422;BMP280;69763;50.182;9.144;2023-07-28T06:14:56;99253.22;;;17.26
80422;BMP280;69763;50.182;9.144;2023-07-28T06:17:22;99256.09;;;17.37
80422;BMP280;69763;50.182;9.144;2023-07-28T06:19:48;99254.47;;;17.44
80422;BMP280;69763;50.182;9.144;2023-07-28T06:22:13;99253.88;;;17.45
80422;BMP280;69763;50.182;9.144;2023-07-28T06:24:39;99263.25;;;17.42
80422;BMP280;69763;50.182;9.144;2023-07-28T06:27:05;99260.50;;;17.42
80422;BMP280;69763;50.182;9.144;2023-07-28T06:29:30;99258.66;;;17.45
80422;BMP280;69763;50.182;9.144;2023-07-28T06:31:55;99263.53;;;17.46
80422;BMP280;69763;50.182;9.144;2023-07-28T06:34:22;99261.47;;;17.57
80422;BMP280;69763;50.182;9.144;2023-07-28T06:36:48;99260.28;;;17.69
80422;BMP280;69763;50.182;9.144;2023-07-28T06:39:13;99257.06;;;17.73
80422;BMP280;69763;50.182;9.144;2023-07-28T06:41:38;99259.19;;;17.84
80422;BMP280;69763;50.182;9.144;2023-07-28T06:44:04;99271.47;;;18.04
80422;BMP280;69763;50.182;9.144;2023-07-28T06:46:29;99274.47;;;18.29
80422;BMP280;69763;50.182;9.144;2023-07-28T06:48:55;99273.63;;;18.48
80422;BMP280;69763;50.182;9.144;2023-07-28T06:51:22;99279.63;;;18.56
80422;BMP280;69763;50.182;9.144;2023-07-28T06:53:47;99282.84;;;18.53
80422;BMP280;69763;50.182;9.144;2023-07-28T06:56:12;99275.91;;;18.52
80422;BMP280;69763;50.182;9.144;2023-07-28T06:58:38;99286.06;;;18.49
80422;BMP280;69763;50.182;9.144;2023-07-28T07:01:03;99285.19;;;18.47
80422;BMP280;69763;50.182;9.144;2023-07-28T07:03:29;99293.56;;;18.49
80422;BMP280;69763;50.182;9.144;2023-07-28T07:05:54;99289.06;;;18.53
80422;BMP280;69763;50.182;9.144;2023-07-28T07:08:21;99290.72;;;18.58
80422;BMP280;69763;50.182;9.144;2023-07-28T07:10:47;99290.28;;;18.62
80422;BMP280;69763;50.182;9.144;2023-07-28T07:13:13;99294.97;;;18.71
80422;BMP280;69763;50.182;9.144;2023-07-28T07:15:38;99293.69;;;18.83
80422;BMP280;69763;50.182;9.144;2023-07-28T07:18:03;99296.34;;;18.93
80422;BMP280;69763;50.182;9.144;2023-07-28T07:20:29;99300.22;;;19.11
80422;BMP280;69763;50.182;9.144;2023-07-28T07:22:54;99304.91;;;19.20
80422;BMP280;69763;50.182;9.144;2023-07-28T07:25:21;99304.78;;;19.30
80422;BMP280;69763;50.182;9.144;2023-07-28T07:27:46;99304.81;;;19.42
80422;BMP280;69763;50.182;9.144;2023-07-28T07:30:12;99310.19;;;19.51
80422;BMP280;69763;50.182;9.144;2023-07-28T07:32:37;99311.38;;;19.48
80422;BMP280;69763;50.182;9.144;2023-07-28T07:35:03;99311.75;;;19.43
80422;BMP280;69763;50.182;9.144;2023-07-28T07:37:29;99314.81;;;19.37
80422;BMP280;69763;50.182;9.144;2023-07-28T07:39:54;99316.75;;;19.34
80422;BMP280;69763;50.182;9.144;2023-07-28T07:42:21;99320.69;;;19.31
80422;BMP280;69763;50.182;9.144;2023-07-28T07:44:46;99317.06;;;19.29
80422;BMP280;69763;50.182;9.144;2023-07-28T07:47:14;99320.53;;;19.29
80422;BMP280;69763;50.182;9.144;2023-07-28T07:49:40;99331.31;;;19.37
80422;BMP280;69763;50.182;9.144;2023-07-28T07:52:06;99317.22;;;19.43
80422;BMP280;69763;50.182;9.144;2023-07-28T07:54:31;99323.47;;;19.55
80422;BMP280;69763;50.182;9.144;2023-07-28T07:56:57;99325.84;;;19.72
80422;BMP280;69763;50.182;9.144;2023-07-28T07:59:24;99325.94;;;19.97
80422;BMP280;69763;50.182;9.144;2023-07-28T08:01:49;99328.41;;;20.28
80422;BMP280;69763;50.182;9.144;2023-07-28T08:04:14;99333.59;;;20.47
80422;BMP280;69763;50.182;9.144;2023-07-28T08:06:40;99332.03;;;20.56
80422;BMP280;69763;50.182;9.144;2023-07-28T08:09:05;99337.88;;;20.62
80422;BMP280;69763;50.182;9.144;2023-07-28T08:11:30;99332.50;;;20.64
80422;BMP280;69763;50.182;9.144;2023-07-28T08:13:56;99338.97;;;20.82
80422;BMP280;69763;50.182;9.144;2023-07-28T08:16:23;99334.72;;;20.93
80422;BMP280;69763;50.182;9.144;2023-07-28T08:18:48;99343.09;;;20.95
80422;BMP280;69763;50.182;9.144;2023-07-28T08:21:13;99341.22;;;20.85
80422;BMP280;69763;50.182;9.144;2023-07-28T08:23:39;99340.72;;;20.75
80422;BMP280;69763;50.182;9.144;2023-07-28T08:26:04;99348.38;;;20.65
80422;BMP280;69763;50.182;9.144;2023-07-28T08:28:30;99343.88;;;20.58
80422;BMP280;69763;50.182;9.144;2023-07-28T08:30:55;99340.81;;;20.41
80422;BMP280;69763;50.182;9.144;2023-07-28T08:33:23;99346.31;;;20.41
80422;BMP280;69763;50.182;9.144;2023-07-28T08:35:48;99350.59;;;20.55
80422;BMP280;69763;50.182;9.144;2023-07-28T08:38:14;99349.88;;;20.80
80422;BMP280;69763;50.182;9.144;2023-07-28T08:40:39;99347.59;;;21.27
80422;BMP280;69763;50.182;9.144;2023-07-28T08:43:05;99349.78;;;21.83
80422;BMP280;69763;50.182;9.144;2023-07-28T08:45:31;99343.78;;;22.29
80422;BMP280;69763;50.182;9.144;2023-07-28T08:47:56;99344.00;;;22.63
80422;BMP280;69763;50.182;9.144;2023-07-28T08:50:23;99342.09;;;22.81
80422;BMP280;69763;50.182;9.144;2023-07-28T08:52:49;99355.66;;;23.22
80422;BMP280;69763;50.182;9.144;2023-07-28T08:55:14;99345.53;;;23.60
80422;BMP280;69763;50.182;9.144;2023-07-28T08:57:40;99348.13;;;24.22
80422;BMP280;69763;50.182;9.144;2023-07-28T09:00:09;99344.78;;;24.98
80422;BMP280;69763;50.182;9.144;2023-07-28T09:02:35;99342.38;;;26.11
80422;BMP280;69763;50.182;9.144;2023-07-28T09:05:03;99336.47;;;27.73
80422;BMP280;69763;50.182;9.144;2023-07-28T09:07:34;99343.06;;;28.49
80422;BMP280;69763;50.182;9.144;2023-07-28T09:09:59;99346.69;;;28.24
80422;BMP280;69763;50.182;9.144;2023-07-28T09:12:25;99337.88;;;27.74
80422;BMP280;69763;50.182;9.144;2023-07-28T09:14:53;99352.56;;;27.23
80422;BMP280;69763;50.182;9.144;2023-07-28T09:17:20;99347.50;;;26.42
80422;BMP280;69763;50.182;9.144;2023-07-28T09:19:50;99343.59;;;25.23
80422;BMP280;69763;50.182;9.144;2023-07-28T09:22:17;99346.00;;;24.38
80422;BMP280;69763;50.182;9.144;2023-07-28T09:24:43;99350.06;;;24.35
80422;BMP280;69763;50.182;9.144;2023-07-28T09:27:19;99342.50;;;26.15
80422;BMP280;69763;50.182;9.144;2023-07-28T09:29:47;99339.19;;;28.30
80422;BMP280;69763;50.182;9.144;2023-07-28T09:32:13;99346.88;;;29.39
80422;BMP280;69763;50.182;9.144;2023-07-28T09:34:38;99348.00;;;29.66
80422;BMP280;69763;50.182;9.144;2023-07-28T09:37:04;99346.34;;;29.49
80422;BMP280;69763;50.182;9.144;2023-07-28T09:39:30;99340.59;;;28.65
80422;BMP280;69763;50.182;9.144;2023-07-28T09:41:59;99350.13;;;27.90
80422;BMP280;69763;50.182;9.144;2023-07-28T09:44:26;99343.94;;;27.66
80422;BMP280;69763;50.182;9.144;2023-07-28T09:46:51;99344.44;;;27.31
80422;BMP280;69763;50.182;9.144;2023-07-28T09:49:21;99342.75;;;27.73
80422;BMP280;69763;50.182;9.144;2023-07-28T09:51:48;99341.50;;;28.10
80422;BMP280;69763;50.182;9.144;2023-07-28T09:54:20;99337.03;;;28.29
80422;BMP280;69763;50.182;9.144;2023-07-28T09:56:46;99330.69;;;28.56
80422;BMP280;69763;50.182;9.144;2023-07-28T09:59:13;99348.16;;;28.27
80422;BMP280;69763;50.182;9.144;2023-07-28T10:01:41;99337.09;;;27.99
80422;BMP280;69763;50.182;9.144;2023-07-28T10:04:06;99338.06;;;27.82
80422;BMP280;69763;50.182;9.144;2023-07-28T10:06:32;99340.69;;;27.46
80422;BMP280;69763;50.182;9.144;2023-07-28T10:08:58;99337.31;;;27.24
80422;BMP280;69763;50.182;9.144;2023-07-28T10:11:23;99334.56;;;27.52
80422;BMP280;69763;50.182;9.144;2023-07-28T10:13:51;99332.63;;;27.30
80422;BMP280;69763;50.182;9.144;2023-07-28T10:16:18;99331.72;;;27.50
80422;BMP280;69763;50.182;9.144;2023-07-28T10:18:51;99336.84;;;27.89
80422;BMP280;69763;50.182;9.144;2023-07-28T10:21:17;99337.19;;;28.03
80422;BMP280;69763;50.182;9.144;2023-07-28T10:23:42;99343.50;;;28.37
80422;BMP280;69763;50.182;9.144;2023-07-28T10:26:09;99343.06;;;28.49
80422;BMP280;69763;50.182;9.144;2023-07-28T10:28:35;99344.84;;;28.34
80422;BMP280;69763;50.182;9.144;2023-07-28T10:31:01;99346.25;;;27.74
80422;BMP280;69763;50.182;9.144;2023-07-28T10:33:33;99346.53;;;27.30
80422;BMP280;69763;50.182;9.144;2023-07-28T10:35:59;99345.38;;;27.39
80422;BMP280;69763;50.182;9.144;2023-07-28T10:38:28;99348.25;;;27.99
80422;BMP280;69763;50.182;9.144;2023-07-28T10:41:05;99358.28;;;28.44
80422;BMP280;69763;50.182;9.144;2023-07-28T10:43:31;99360.28;;;28.73
80422;BMP280;69763;50.182;9.144;2023-07-28T10:45:56;99355.00;;;29.25
80422;BMP280;69763;50.182;9.144;2023-07-28T10:48:22;99358.63;;;29.75
80422;BMP280;69763;50.182;9.144;2023-07-28T10:50:49;99355.09;;;30.21
80422;BMP280;69763;50.182;9.144;2023-07-28T10:53:15;99345.34;;;30.22
80422;BMP280;69763;50.182;9.144;2023-07-28T10:55:40;99349.50;;;30.21
80422;BMP280;69763;50.182;9.144;2023-07-28T10:58:06;99343.88;;;30.19
80422;BMP280;69763;50.182;9.144;2023-07-28T11:00:31;99351.97;;;29.97
80422;BMP280;69763;50.182;9.144;2023-07-28T11:02:56;99357.13;;;29.68
80422;BMP280;69763;50.182;9.144;2023-07-28T11:05:22;99351.63;;;29.31
80422;BMP280;69763;50.182;9.144;2023-07-28T11:07:49;99352.88;;;29.23
80422;BMP280;69763;50.182;9.144;2023-07-28T11:10:16;99346.97;;;29.05
80422;BMP280;69763;50.182;9.144;2023-07-28T11:12:41;99347.44;;;28.94
80422;BMP280;69763;50.182;9.144;2023-07-28T11:15:08;99351.50;;;28.87
80422;BMP280;69763;50.182;9.144;2023-07-28T11:17:33;99355.06;;;28.91
80422;BMP280;69763;50.182;9.144;2023-07-28T11:19:58;99354.66;;;28.71
80422;BMP280;69763;50.182;9.144;2023-07-28T11:22:24;99360.09;;;27.99
80422;BMP280;69763;50.182;9.144;2023-07-28T11:24:51;99374.84;;;27.23
80422;BMP280;69763;50.182;9.144;2023-07-28T11:27:17;99356.81;;;26.98
80422;BMP280;69763;50.182;9.144;2023-07-28T11:29:43;99357.97;;;27.17
80422;BMP280;69763;50.182;9.144;2023-07-28T11:32:09;99353.94;;;27.48
80422;BMP280;69763;50.182;9.144;2023-07-28T11:34:35;99362.09;;;27.39
80422;BMP280;69763;50.182;9.144;2023-07-28T11:37:01;99366.44;;;26.95
80422;BMP280;69763;50.182;9.144;2023-07-28T11:39:27;99359.03;;;26.56
80422;BMP280;69763;50.182;9.144;2023-07-28T11:41:54;99362.72;;;26.87
80422;BMP280;69763;50.182;9.144;2023-07-28T11:44:20;99369.66;;;27.65
80422;BMP280;69763;50.182;9.144;2023-07-28T11:46:45;99378.19;;;28.30
80422;BMP280;69763;50.182;9.144;2023-07-28T11:49:12;99363.84;;;28.42
80422;BMP280;69763;50.182;9.144;2023-07-28T11:51:39;99366.63;;;28.12
80422;BMP280;69763;50.182;9.144;2023-07-28T11:54:05;99371.78;;;27.66
80422;BMP280;69763;50.182;9.144;2023-07-28T11:56:31;99374.13;;;27.22
80422;BMP280;69763;50.182;9.144;2023-07-28T11:58:58;99363.75;;;26.99
80422;BMP280;69763;50.182;9.144;2023-07-28T12:01:23;99367.25;;;26.76
80422;BMP280;69763;50.182;9.144;2023-07-28T12:03:48;99374.13;;;26.73
80422;BMP280;69763;50.182;9.144;2023-07-28T12:06:14;99378.56;;;26.82
80422;BMP280;69763;50.182;9.144;2023-07-28T12:08:40;99383.31;;;26.77
80422;BMP280;69763;50.182;9.144;2023-07-28T12:11:05;99381.88;;;26.76
80422;BMP280;69763;50.182;9.144;2023-07-28T12:13:47;99382.66;;;26.79
80422;BMP280;69763;50.182;9.144;2023-07-28T12:16:34;99378.38;;;26.76
80422;BMP280;69763;50.182;9.144;2023-07-28T12:18:59;99379.13;;;27.02
80422;BMP280;69763;50.182;9.144;2023-07-28T12:21:25;99379.81;;;27.52
80422;BMP280;69763;50.182;9.144;2023-07-28T12:23:50;99385.41;;;28.12
80422;BMP280;69763;50.182;9.144;2023-07-28T12:26:15;99379.66;;;28.33
80422;BMP280;69763;50.182;9.144;2023-07-28T12:28:41;99387.78;;;28.23
80422;BMP280;69763;50.182;9.144;2023-07-28T12:31:06;99380.38;;;28.04
80422;BMP280;69763;50.182;9.144;2023-07-28T12:33:33;99387.69;;;27.89
80422;BMP280;69763;50.182;9.144;2023-07-28T12:35:58;99382.41;;;27.46
80422;BMP280;69763;50.182;9.144;2023-07-28T12:38:23;99378.22;;;27.19
80422;BMP280;69763;50.182;9.144;2023-07-28T12:40:49;99379.84;;;27.03
80422;BMP280;69763;50.182;9.144;2023-07-28T12:43:14;99374.72;;;26.93
80422;BMP280;69763;50.182;9.144;2023-07-28T12:45:39;99385.44;;;27.05
80422;BMP280;69763;50.182;9.144;2023-07-28T12:48:05;99368.84;;;27.32
80422;BMP280;69763;50.182;9.144;2023-07-28T12:50:31;99380.94;;;27.98
80422;BMP280;69763;50.182;9.144;2023-07-28T12:52:57;99381.38;;;28.48
80422;BMP280;69763;50.182;9.144;2023-07-28T12:55:22;99371.66;;;28.83
80422;BMP280;69763;50.182;9.144;2023-07-28T12:57:48;99386.38;;;28.88
80422;BMP280;69763;50.182;9.144;2023-07-28T13:00:13;99384.84;;;28.81
80422;BMP280;69763;50.182;9.144;2023-07-28T13:02:39;99393.88;;;28.79
80422;BMP280;69763;50.182;9.144;2023-07-28T13:05:05;99391.31;;;28.57
80422;BMP280;69763;50.182;9.144;2023-07-28T13:07:32;99395.22;;;28.15
80422;BMP280;69763;50.182;9.144;2023-07-28T13:09:58;99390.34;;;27.58
80422;BMP280;69763;50.182;9.144;2023-07-28T13:12:23;99407.81;;;27.09
80422;BMP280;69763;50.182;9.144;2023-07-28T13:14:48;99403.81;;;26.66
80422;BMP280;69763;50.182;9.144;2023-07-28T13:17:14;99404.97;;;26.36
80422;BMP280;69763;50.182;9.144;2023-07-28T13:19:39;99410.25;;;26.27
80422;BMP280;69763;50.182;9.144;2023-07-28T13:22:04;99399.91;;;26.75
80422;BMP280;69763;50.182;9.144;2023-07-28T13:24:31;99399.41;;;27.58
80422;BMP280;69763;50.182;9.144;2023-07-28T13:26:56;99406.84;;;28.05
80422;BMP280;69763;50.182;9.144;2023-07-28T13:29:22;99400.91;;;28.19
80422;BMP280;69763;50.182;9.144;2023-07-28T13:31:47;99393.34;;;28.53
80422;BMP280;69763;50.182;9.144;2023-07-28T13:34:13;99390.41;;;29.16
80422;BMP280;69763;50.182;9.144;2023-07-28T13:36:38;99396.94;;;29.69
80422;BMP280;69763;50.182;9.144;2023-07-28T13:39:03;99394.69;;;29.59
80422;BMP280;69763;50.182;9.144;2023-07-28T13:41:30;99389.06;;;29.57
80422;BMP280;69763;50.182;9.144;2023-07-28T13:43:55;99397.00;;;29.33
80422;BMP280;69763;50.182;9.144;2023-07-28T13:46:20;99385.31;;;29.05
80422;BMP280;69763;50.182;9.144;2023-07-28T13:48:46;99389.69;;;28.78
80422;BMP280;69763;50.182;9.144;2023-07-28T13:51:11;99391.66;;;28.74
80422;BMP280;69763;50.182;9.144;2023-07-28T13:53:36;99387.41;;;28.71
80422;BMP280;69763;50.182;9.144;2023-07-28T13:56:02;99392.81;;;28.62
80422;BMP280;69763;50.182;9.144;2023-07-28T13:58:29;99391.44;;;28.63
80422;BMP280;69763;50.182;9.144;2023-07-28T14:00:54;99402.31;;;28.49
80422;BMP280;69763;50.182;9.144;2023-07-28T14:03:19;99394.28;;;28.02